Race Coverage Navigation

TS # 52 / Mt Airy, MD  2019

 


TS STATS
TS Distance 36.6 
Total Distance 2986.94 
Miles To Go 54.63 
TS Climbing 2965 
Total Climbing
TS  Elevation
TS  Net Elevation 4722 
Map Filename Open Map 
Directions Filename  
Latitude 39.36 
Longitude -77.16 
Google Map  TimeStation Map 


TS Arrival Data
Arr Ord  #/Name Arrival DT TS Dst Avg This TS Avg Overall
 1 377 - Christoph Strasser  06/19/2019 21:26 36.6  14.64  15.18 
 2 T411 - team alpha - tischlerei groemmer  06/21/2019 4:24 36.6  21.74  22.45 
 3 T800 - Backstedt Racing Project 14  06/21/2019 4:56 36.6  22.18  22.38 
 4 279 - Marko Baloh  06/21/2019 6:38 36.6  9.51  12.99 
 5 609 - Jakob Olsen  06/21/2019 8:47 36.6  11.2  12.85 
 6 T404 - Gentlemen of speed  06/21/2019 14:10 36.6  22.64  20.9 
 7 T805 - Team Oceanside  06/21/2019 18:48 36.6  20.91  20.29 
 8 T401 - Data Techniques powered by Networks Centre  06/21/2019 18:55 36.6  16.51  20.22 
 9 T807 - Team ZOE International  06/21/2019 19:30 36.6  20.15  20.2 
 10 T407 - Julian Becker   06/21/2019 21:34 36.6  21.96  19.88 
 11 T201 - EAT WELL  06/21/2019 22:49 36.6  18.77  19.68 
 12 T802 - Scorchers  06/21/2019 23:30 36.6  17.71  19.65 
 13 T804 - Team FSHD Skyland Trail  06/22/2019 1:46 36.6  17.57  19.37 
 14 T408 - Radeln-fuer-Kinder (Cycling-for-Kids)  06/22/2019 2:41 36.6  28.52  19.22 
 15 T416 - Team Rotary Raams Polio  06/22/2019 2:44 36.6  19.43  19.23 
 16 617 - SOLO.kiwi (Craig Harper)  06/22/2019 3:19 36.6  11.09  11.9 
 17 367 - Daniela Genovesi  06/22/2019 4:32 36.6  11.04  11.83 
 18 416 - Leah Goldstein  06/22/2019 7:29 36.6  11.7 
 19 T808 - Antonia's Friends 2019  06/22/2019 7:38 36.6  13.31  18.67 
 20 T400 - Cantastic4  06/22/2019 7:49 36.6  18.45  18.59 
 21 623 - Ultra Paka Racing Team (Daniel Polman)  06/22/2019 8:03 36.6  12.99  11.67 
 22 622 - Thomas Odom-Team Kyle Pease Foundation  06/22/2019 9:24 36.6  13.73  11.61 
 23 T406 - Operation Walk Midwest  06/22/2019 10:47 36.6  15.46  18.27 
 24 T418 - The Opportunists  06/22/2019 12:16 36.6  19.61  18.12 
 25 329 - Peter Oyler  06/22/2019 13:57 36.6  10.87  11.43 
 26 611 - Marcelo Soares " MIXIRICA "  06/22/2019 15:47 36.6  11.26  11.34 
 27 615 - Philipp Amhof  06/22/2019 17:06 36.6  6.88  11.28 
 28 T410 - Soap-Aid  06/22/2019 18:26 36.6  16.64  17.46 
 29 603 - Alan Bradley  06/22/2019 19:11 36.6  12.07  11.2 
 30 529 - Isa Pulver  06/22/2019 21:33 36.6  10.82  11.08 
 31 T412 - Team Aspect  06/22/2019 21:44 36.6  19.43  17.13 
 32 T803 - Team EndoPark  06/22/2019 22:55 36.6  17.71  17.03 
 33 T414 - Brazil Nuts  06/22/2019 23:35 36.6  10.76  16.95 
 34 442 - Joe Barr  06/23/2019 2:09 36.6  7.39  10.92 
 35 T405 - High Rollers  06/23/2019 2:25 36.6  15.69  16.67 
 36 T202 - Integra Medical - BAA Racing  06/23/2019 3:11 36.6  15.04  16.58 
 37 T415 - TEAM FIRE VELO 935  06/23/2019 3:28 36.6  11.93  16.59 
 38 612 - Markus K. Brandl  06/23/2019 3:54 36.6  8.22  10.84 
 39 T204 - Lucan CRC  06/23/2019 5:15 36.6  18  16.4 
 40 411 - Geoff Brunner  06/23/2019 5:30 36.6  6.17  10.79 
 41 T200 - AIR RELAX GoPro TEAM BRASIL  06/23/2019 5:59 36.6  21.32  16.32 
 42 559 - Team Martin RAAM 2019 (Martin Bergmeister)  06/23/2019 6:20 36.6  13.9  10.75 
 43 T413 - TEAM BRASIL - SKIPPER  06/23/2019 6:29 36.6  14.64  16.31 
 44 T402 - EA/WFP RAAM Team  06/23/2019 8:38 36.6  15.57  16.11 
 45 510 - John C. Tarlton  06/23/2019 9:02 36.6  12.07  10.65 
 46 T206 - Project Linear Acceleration  06/23/2019 9:10 36.6  15.04  16.05 
 47 618 - GREGORY ROBINSON  06/23/2019 9:50 36.6  17.57  10.61 
 48 610 - Kabir Rachure  06/23/2019 11:03 36.6  11.15  10.57 
 49 T801 - Mind Over Matter  06/23/2019 12:38 36.6  13.31  15.79 
 50 T417 - Team4RAAM 2019 powered by TGW Living Logistics  06/23/2019 12:39 36.6  18.15  15.79 
 51 T806 - Team SuperMarrow  06/23/2019 13:40 36.6  16.76  15.71 
 52 568 - Alexandra Meixner  06/23/2019 16:52 36.6  9.51  10.34 
 53 T403 - EKJ Denmark  06/23/2019 17:46 36.6  15.91  15.35 
 54 399 - Valerio Zamboni  06/24/2019 0:16 36.6  9.19  10.1 
 55 424 - Team i RON man Veterans supporting Veterans  06/24/2019 4:33 36.6  11.38  9.96 
 56 604 - Chieko Ozawa  06/24/2019 5:52 36.6  4.66  9.9 
 57 161 - Seana Hogan  06/24/2019 16:03 36.6  13.07  9.58 
 58 T210 - Bike Wine Team  06/24/2019 17:44 36.6  12.77  13.66